sensor_id;sensor_type;location;lat;lon;timestamp;pressure;altitude;pressure_sealevel;temperature;humidity
43503;BME280;29098;48.184;16.298;2024-02-16T00:00:15;99760.44;;;5.35;100.00
43503;BME280;29098;48.184;16.298;2024-02-16T00:02:44;99740.06;;;5.39;100.00
43503;BME280;29098;48.184;16.298;2024-02-16T00:05:11;99779.56;;;5.56;100.00
43503;BME280;29098;48.184;16.298;2024-02-16T00:07:37;99724.91;;;5.33;100.00
43503;BME280;29098;48.184;16.298;2024-02-16T00:10:04;99758.63;;;5.56;100.00
43503;BME280;29098;48.184;16.298;2024-02-16T00:12:30;99751.06;;;5.33;100.00
43503;BME280;29098;48.184;16.298;2024-02-16T00:14:57;99741.44;;;5.14;100.00
43503;BME280;29098;48.184;16.298;2024-02-16T00:17:22;99741.97;;;5.17;100.00
43503;BME280;29098;48.184;16.298;2024-02-16T00:19:52;99739.78;;;5.13;100.00
43503;BME280;29098;48.184;16.298;2024-02-16T00:22:17;99713.09;;;5.09;100.00
43503;BME280;29098;48.184;16.298;2024-02-16T00:24:43;99751.59;;;5.27;100.00
43503;BME280;29098;48.184;16.298;2024-02-16T00:27:08;99769.38;;;5.33;100.00
43503;BME280;29098;48.184;16.298;2024-02-16T00:29:34;99761.25;;;5.26;100.00
43503;BME280;29098;48.184;16.298;2024-02-16T00:31:59;99728.75;;;4.89;100.00
43503;BME280;29098;48.184;16.298;2024-02-16T00:34:25;99759.31;;;4.99;100.00
43503;BME280;29098;48.184;16.298;2024-02-16T00:36:51;99725.69;;;4.74;100.00
43503;BME280;29098;48.184;16.298;2024-02-16T00:39:17;99767.97;;;5.09;100.00
43503;BME280;29098;48.184;16.298;2024-02-16T00:41:42;99725.72;;;4.84;100.00
43503;BME280;29098;48.184;16.298;2024-02-16T00:44:08;99696.28;;;4.92;100.00
43503;BME280;29098;48.184;16.298;2024-02-16T00:46:35;99726.41;;;4.86;100.00
43503;BME280;29098;48.184;16.298;2024-02-16T00:49:01;99749.25;;;4.94;100.00
43503;BME280;29098;48.184;16.298;2024-02-16T00:51:27;99754.63;;;5.02;100.00
43503;BME280;29098;48.184;16.298;2024-02-16T00:53:52;99716.78;;;4.87;100.00
43503;BME280;29098;48.184;16.298;2024-02-16T00:56:18;99741.41;;;5.04;100.00
43503;BME280;29098;48.184;16.298;2024-02-16T00:58:43;99741.44;;;5.14;100.00
43503;BME280;29098;48.184;16.298;2024-02-16T01:01:09;99731.50;;;4.88;100.00
43503;BME280;29098;48.184;16.298;2024-02-16T01:03:38;99667.97;;;4.68;100.00
43503;BME280;29098;48.184;16.298;2024-02-16T01:06:04;99730.81;;;4.96;100.00
43503;BME280;29098;48.184;16.298;2024-02-16T01:08:30;99692.00;;;4.81;100.00
43503;BME280;29098;48.184;16.298;2024-02-16T01:10:56;99727.66;;;4.82;100.00
43503;BME280;29098;48.184;16.298;2024-02-16T01:13:21;99674.56;;;4.72;100.00
43503;BME280;29098;48.184;16.298;2024-02-16T01:15:47;99711.16;;;4.91;100.00
43503;BME280;29098;48.184;16.298;2024-02-16T01:18:12;99731.50;;;4.88;100.00
43503;BME280;29098;48.184;16.298;2024-02-16T01:20:38;99702.75;;;4.78;100.00
43503;BME280;29098;48.184;16.298;2024-02-16T01:23:03;99695.72;;;4.69;100.00
43503;BME280;29098;48.184;16.298;2024-02-16T01:25:30;99703.81;;;4.65;100.00
43503;BME280;29098;48.184;16.298;2024-02-16T01:27:56;99725.44;;;4.87;100.00
43503;BME280;29098;48.184;16.298;2024-02-16T01:30:22;99732.44;;;4.77;100.00
43503;BME280;29098;48.184;16.298;2024-02-16T01:32:47;99668.75;;;4.58;100.00
43503;BME280;29098;48.184;16.298;2024-02-16T01:35:13;99727.91;;;4.79;100.00
43503;BME280;29098;48.184;16.298;2024-02-16T01:37:40;99662.44;;;4.51;100.00
43503;BME280;29098;48.184;16.298;2024-02-16T01:40:07;99732.03;;;4.82;100.00
43503;BME280;29098;48.184;16.298;2024-02-16T01:42:34;99711.97;;;4.82;100.00
43503;BME280;29098;48.184;16.298;2024-02-16T01:44:59;99681.81;;;4.58;100.00
43503;BME280;29098;48.184;16.298;2024-02-16T01:47:25;99692.56;;;4.65;100.00
43503;BME280;29098;48.184;16.298;2024-02-16T01:49:51;99692.69;;;4.63;100.00
43503;BME280;29098;48.184;16.298;2024-02-16T01:52:17;99663.78;;;4.45;100.00
43503;BME280;29098;48.184;16.298;2024-02-16T01:54:43;99688.81;;;4.48;100.00
43503;BME280;29098;48.184;16.298;2024-02-16T01:57:09;99677.66;;;4.46;100.00
43503;BME280;29098;48.184;16.298;2024-02-16T01:59:36;99682.75;;;4.37;100.00
43503;BME280;29098;48.184;16.298;2024-02-16T02:02:02;99646.72;;;4.31;100.00
43503;BME280;29098;48.184;16.298;2024-02-16T02:04:27;99666.69;;;4.42;100.00
43503;BME280;29098;48.184;16.298;2024-02-16T02:06:54;99660.56;;;4.22;100.00
43503;BME280;29098;48.184;16.298;2024-02-16T02:09:19;99626.22;;;4.17;100.00
43503;BME280;29098;48.184;16.298;2024-02-16T02:11:45;99650.50;;;4.07;100.00
43503;BME280;29098;48.184;16.298;2024-02-16T02:14:10;99689.34;;;4.51;100.00
43503;BME280;29098;48.184;16.298;2024-02-16T02:16:36;99693.75;;;4.41;100.00
43503;BME280;29098;48.184;16.298;2024-02-16T02:19:02;99669.50;;;4.19;100.00
43503;BME280;29098;48.184;16.298;2024-02-16T02:21:28;99687.44;;;4.44;100.00
43503;BME280;29098;48.184;16.298;2024-02-16T02:23:53;99635.41;;;4.11;100.00
43503;BME280;29098;48.184;16.298;2024-02-16T02:26:20;99689.97;;;4.24;100.00
43503;BME280;29098;48.184;16.298;2024-02-16T02:28:46;99625.22;;;4.08;100.00
43503;BME280;29098;48.184;16.298;2024-02-16T02:31:11;99672.81;;;4.31;100.00
43503;BME280;29098;48.184;16.298;2024-02-16T02:33:37;99670.09;;;4.33;100.00
43503;BME280;29098;48.184;16.298;2024-02-16T02:36:03;99669.94;;;4.24;100.00
43503;BME280;29098;48.184;16.298;2024-02-16T02:38:29;99610.13;;;4.02;100.00
43503;BME280;29098;48.184;16.298;2024-02-16T02:40:55;99670.84;;;4.23;100.00
43503;BME280;29098;48.184;16.298;2024-02-16T02:43:21;99665.50;;;4.25;100.00
43503;BME280;29098;48.184;16.298;2024-02-16T02:45:47;99673.31;;;4.15;100.00
43503;BME280;29098;48.184;16.298;2024-02-16T02:48:12;99629.47;;;3.99;100.00
43503;BME280;29098;48.184;16.298;2024-02-16T02:50:38;99664.84;;;4.23;100.00
43503;BME280;29098;48.184;16.298;2024-02-16T02:53:03;99675.31;;;4.33;100.00
43503;BME280;29098;48.184;16.298;2024-02-16T02:55:29;99647.38;;;4.14;100.00
43503;BME280;29098;48.184;16.298;2024-02-16T02:57:54;99613.88;;;3.78;100.00
43503;BME280;29098;48.184;16.298;2024-02-16T03:00:20;99674.66;;;4.09;100.00
43503;BME280;29098;48.184;16.298;2024-02-16T03:02:45;99622.44;;;3.90;100.00
43503;BME280;29098;48.184;16.298;2024-02-16T03:05:11;99635.03;;;3.84;100.00
43503;BME280;29098;48.184;16.298;2024-02-16T03:07:36;99603.97;;;3.72;100.00
43503;BME280;29098;48.184;16.298;2024-02-16T03:10:02;99642.63;;;3.97;100.00
43503;BME280;29098;48.184;16.298;2024-02-16T03:12:28;99600.16;;;3.86;100.00
43503;BME280;29098;48.184;16.298;2024-02-16T03:14:54;99640.03;;;3.97;100.00
43503;BME280;29098;48.184;16.298;2024-02-16T03:17:19;99640.53;;;3.91;100.00
43503;BME280;29098;48.184;16.298;2024-02-16T03:19:45;99607.25;;;3.74;100.00
43503;BME280;29098;48.184;16.298;2024-02-16T03:22:10;99645.00;;;4.01;100.00
43503;BME280;29098;48.184;16.298;2024-02-16T03:24:35;99644.63;;;3.84;100.00
43503;BME280;29098;48.184;16.298;2024-02-16T03:27:01;99632.06;;;3.68;100.00
43503;BME280;29098;48.184;16.298;2024-02-16T03:29:27;99631.38;;;3.66;100.00
43503;BME280;29098;48.184;16.298;2024-02-16T03:31:53;99617.56;;;3.75;100.00
43503;BME280;29098;48.184;16.298;2024-02-16T03:34:18;99621.66;;;3.68;100.00
43503;BME280;29098;48.184;16.298;2024-02-16T03:36:44;99612.75;;;3.70;100.00
43503;BME280;29098;48.184;16.298;2024-02-16T03:39:09;99635.78;;;3.65;100.00
43503;BME280;29098;48.184;16.298;2024-02-16T03:41:35;99594.78;;;3.46;100.00
43503;BME280;29098;48.184;16.298;2024-02-16T03:44:00;99623.50;;;3.56;100.00
43503;BME280;29098;48.184;16.298;2024-02-16T03:46:26;99673.41;;;3.73;100.00
43503;BME280;29098;48.184;16.298;2024-02-16T03:48:52;99662.63;;;3.56;100.00
43503;BME280;29098;48.184;16.298;2024-02-16T03:51:18;99651.03;;;3.49;100.00
43503;BME280;29098;48.184;16.298;2024-02-16T03:53:43;99662.44;;;3.48;100.00
43503;BME280;29098;48.184;16.298;2024-02-16T03:56:10;99656.88;;;3.41;100.00
43503;BME280;29098;48.184;16.298;2024-02-16T03:58:37;99669.59;;;3.55;100.00
43503;BME280;29098;48.184;16.298;2024-02-16T04:01:03;99603.81;;;3.21;100.00
43503;BME280;29098;48.184;16.298;2024-02-16T04:03:28;99661.09;;;3.53;100.00
43503;BME280;29098;48.184;16.298;2024-02-16T04:05:54;99605.63;;;3.20;100.00
43503;BME280;29098;48.184;16.298;2024-02-16T04:08:19;99655.13;;;3.41;100.00
43503;BME280;29098;48.184;16.298;2024-02-16T04:10:46;99645.84;;;3.49;100.00
43503;BME280;29098;48.184;16.298;2024-02-16T04:13:11;99638.13;;;3.47;100.00
43503;BME280;29098;48.184;16.298;2024-02-16T04:15:37;99638.25;;;3.24;100.00
43503;BME280;29098;48.184;16.298;2024-02-16T04:18:04;99648.81;;;3.44;100.00
43503;BME280;29098;48.184;16.298;2024-02-16T04:20:29;99666.13;;;3.45;100.00
43503;BME280;29098;48.184;16.298;2024-02-16T04:22:54;99648.38;;;3.39;100.00
43503;BME280;29098;48.184;16.298;2024-02-16T04:25:20;99662.09;;;3.41;100.00
43503;BME280;29098;48.184;16.298;2024-02-16T04:27:45;99687.84;;;3.34;100.00
43503;BME280;29098;48.184;16.298;2024-02-16T04:30:11;99677.81;;;3.29;100.00
43503;BME280;29098;48.184;16.298;2024-02-16T04:32:37;99630.75;;;2.88;100.00
43503;BME280;29098;48.184;16.298;2024-02-16T04:35:02;99688.59;;;3.25;100.00
43503;BME280;29098;48.184;16.298;2024-02-16T04:37:29;99652.75;;;3.17;100.00
43503;BME280;29098;48.184;16.298;2024-02-16T04:39:54;99678.56;;;3.20;100.00
43503;BME280;29098;48.184;16.298;2024-02-16T04:42:20;99657.44;;;3.02;100.00
43503;BME280;29098;48.184;16.298;2024-02-16T04:44:45;99697.00;;;3.28;100.00
43503;BME280;29098;48.184;16.298;2024-02-16T04:47:10;99655.25;;;3.19;100.00
43503;BME280;29098;48.184;16.298;2024-02-16T04:49:37;99652.50;;;3.20;100.00
43503;BME280;29098;48.184;16.298;2024-02-16T04:52:03;99683.50;;;3.23;100.00
43503;BME280;29098;48.184;16.298;2024-02-16T04:54:29;99663.16;;;3.17;100.00
43503;BME280;29098;48.184;16.298;2024-02-16T04:56:54;99663.16;;;3.17;100.00
43503;BME280;29098;48.184;16.298;2024-02-16T04:59:20;99657.91;;;2.74;100.00
43503;BME280;29098;48.184;16.298;2024-02-16T05:01:46;99654.19;;;2.88;100.00
43503;BME280;29098;48.184;16.298;2024-02-16T05:04:12;99649.53;;;2.92;100.00
43503;BME280;29098;48.184;16.298;2024-02-16T05:06:41;99656.03;;;2.98;100.00
43503;BME280;29098;48.184;16.298;2024-02-16T05:09:07;99647.47;;;3.07;100.00
43503;BME280;29098;48.184;16.298;2024-02-16T05:11:32;99638.44;;;2.90;100.00
43503;BME280;29098;48.184;16.298;2024-02-16T05:13:58;99686.09;;;3.02;100.00
43503;BME280;29098;48.184;16.298;2024-02-16T05:16:23;99661.44;;;3.06;100.00
43503;BME280;29098;48.184;16.298;2024-02-16T05:18:49;99668.25;;;2.97;100.00
43503;BME280;29098;48.184;16.298;2024-02-16T05:21:14;99664.91;;;2.95;100.00
43503;BME280;29098;48.184;16.298;2024-02-16T05:23:40;99697.59;;;2.99;100.00
43503;BME280;29098;48.184;16.298;2024-02-16T05:26:05;99648.06;;;2.78;100.00
43503;BME280;29098;48.184;16.298;2024-02-16T05:28:31;99674.06;;;2.90;100.00
43503;BME280;29098;48.184;16.298;2024-02-16T05:30:57;99670.09;;;3.07;100.00
43503;BME280;29098;48.184;16.298;2024-02-16T05:33:25;99655.03;;;2.89;100.00
43503;BME280;29098;48.184;16.298;2024-02-16T05:35:52;99668.34;;;2.96;100.00
43503;BME280;29098;48.184;16.298;2024-02-16T05:38:20;99629.75;;;2.68;100.00
43503;BME280;29098;48.184;16.298;2024-02-16T05:40:57;99681.13;;;2.99;100.00
43503;BME280;29098;48.184;16.298;2024-02-16T05:43:23;99683.94;;;3.07;100.00
43503;BME280;29098;48.184;16.298;2024-02-16T05:45:51;99684.06;;;3.06;100.00
43503;BME280;29098;48.184;16.298;2024-02-16T05:48:17;99667.72;;;3.04;100.00
43503;BME280;29098;48.184;16.298;2024-02-16T05:50:42;99669.84;;;3.10;100.00
43503;BME280;29098;48.184;16.298;2024-02-16T05:53:08;99667.00;;;3.34;100.00
43503;BME280;29098;48.184;16.298;2024-02-16T05:55:36;99621.59;;;2.94;100.00
43503;BME280;29098;48.184;16.298;2024-02-16T05:58:02;99651.38;;;3.13;100.00
43503;BME280;29098;48.184;16.298;2024-02-16T06:00:34;99650.38;;;2.93;100.00
43503;BME280;29098;48.184;16.298;2024-02-16T06:02:59;99653.63;;;3.06;100.00
43503;BME280;29098;48.184;16.298;2024-02-16T06:05:25;99677.69;;;2.98;100.00
43503;BME280;29098;48.184;16.298;2024-02-16T06:07:50;99651.69;;;2.87;100.00
43503;BME280;29098;48.184;16.298;2024-02-16T06:10:16;99695.94;;;2.98;100.00
43503;BME280;29098;48.184;16.298;2024-02-16T06:12:43;99650.63;;;2.90;100.00
43503;BME280;29098;48.184;16.298;2024-02-16T06:15:09;99699.66;;;3.17;100.00
43503;BME280;29098;48.184;16.298;2024-02-16T06:17:35;99665.75;;;2.96;100.00
43503;BME280;29098;48.184;16.298;2024-02-16T06:20:02;99693.41;;;3.08;100.00
43503;BME280;29098;48.184;16.298;2024-02-16T06:22:29;99657.91;;;2.74;100.00
43503;BME280;29098;48.184;16.298;2024-02-16T06:24:57;99667.66;;;2.94;100.00
43503;BME280;29098;48.184;16.298;2024-02-16T06:27:22;99693.44;;;2.97;100.00
43503;BME280;29098;48.184;16.298;2024-02-16T06:29:49;99666.34;;;2.88;100.00
43503;BME280;29098;48.184;16.298;2024-02-16T06:32:14;99682.34;;;2.83;100.00
43503;BME280;29098;48.184;16.298;2024-02-16T06:34:42;99652.94;;;2.71;100.00
43503;BME280;29098;48.184;16.298;2024-02-16T06:37:08;99678.06;;;2.94;100.00
43503;BME280;29098;48.184;16.298;2024-02-16T06:39:34;99667.09;;;2.90;100.00
43503;BME280;29098;48.184;16.298;2024-02-16T06:41:59;99664.47;;;2.90;100.00
43503;BME280;29098;48.184;16.298;2024-02-16T06:44:25;99653.59;;;2.85;100.00
43503;BME280;29098;48.184;16.298;2024-02-16T06:46:51;99662.09;;;2.87;100.00
43503;BME280;29098;48.184;16.298;2024-02-16T06:49:16;99684.44;;;3.01;100.00
43503;BME280;29098;48.184;16.298;2024-02-16T06:51:42;99680.31;;;2.98;100.00
43503;BME280;29098;48.184;16.298;2024-02-16T06:54:07;99714.19;;;3.20;100.00
43503;BME280;29098;48.184;16.298;2024-02-16T06:56:33;99717.84;;;3.28;100.00
43503;BME280;29098;48.184;16.298;2024-02-16T06:58:58;99719.56;;;3.82;100.00
43503;BME280;29098;48.184;16.298;2024-02-16T07:01:24;99682.19;;;3.72;100.00
43503;BME280;29098;48.184;16.298;2024-02-16T07:03:52;99665.72;;;3.50;100.00
43503;BME280;29098;48.184;16.298;2024-02-16T07:06:18;99748.75;;;3.76;100.00
43503;BME280;29098;48.184;16.298;2024-02-16T07:08:43;99685.34;;;3.54;100.00
43503;BME280;29098;48.184;16.298;2024-02-16T07:11:10;99722.06;;;3.83;100.00
43503;BME280;29098;48.184;16.298;2024-02-16T07:13:37;99740.69;;;4.00;100.00
43503;BME280;29098;48.184;16.298;2024-02-16T07:16:03;99703.22;;;3.80;100.00
43503;BME280;29098;48.184;16.298;2024-02-16T07:18:29;99685.53;;;3.83;100.00
43503;BME280;29098;48.184;16.298;2024-02-16T07:20:55;99706.59;;;4.23;100.00
43503;BME280;29098;48.184;16.298;2024-02-16T07:23:21;99704.16;;;4.31;100.00
43503;BME280;29098;48.184;16.298;2024-02-16T07:25:46;99710.97;;;4.63;100.00
43503;BME280;29098;48.184;16.298;2024-02-16T07:28:14;99714.19;;;4.87;100.00
43503;BME280;29098;48.184;16.298;2024-02-16T07:30:39;99739.75;;;5.03;100.00
43503;BME280;29098;48.184;16.298;2024-02-16T07:33:06;99716.53;;;5.19;100.00
43503;BME280;29098;48.184;16.298;2024-02-16T07:35:33;99681.19;;;5.15;100.00
43503;BME280;29098;48.184;16.298;2024-02-16T07:37:58;99652.84;;;5.20;100.00
43503;BME280;29098;48.184;16.298;2024-02-16T07:40:24;99671.84;;;5.23;100.00
43503;BME280;29098;48.184;16.298;2024-02-16T07:42:49;99691.47;;;5.46;100.00
43503;BME280;29098;48.184;16.298;2024-02-16T07:45:15;99731.91;;;5.72;100.00
43503;BME280;29098;48.184;16.298;2024-02-16T07:47:41;99710.31;;;5.60;100.00
43503;BME280;29098;48.184;16.298;2024-02-16T07:50:07;99707.84;;;5.58;100.00
43503;BME280;29098;48.184;16.298;2024-02-16T07:52:32;99709.16;;;5.82;100.00
43503;BME280;29098;48.184;16.298;2024-02-16T07:54:58;99721.25;;;5.93;100.00
43503;BME280;29098;48.184;16.298;2024-02-16T07:57:24;99701.19;;;5.74;100.00
43503;BME280;29098;48.184;16.298;2024-02-16T07:59:49;99685.63;;;5.82;100.00
43503;BME280;29098;48.184;16.298;2024-02-16T08:02:15;99702.38;;;6.09;100.00
43503;BME280;29098;48.184;16.298;2024-02-16T08:04:46;99691.63;;;6.02;100.00
43503;BME280;29098;48.184;16.298;2024-02-16T08:07:12;99724.25;;;6.46;100.00
43503;BME280;29098;48.184;16.298;2024-02-16T08:09:38;99659.00;;;6.07;100.00
43503;BME280;29098;48.184;16.298;2024-02-16T08:12:05;99727.28;;;6.51;100.00
43503;BME280;29098;48.184;16.298;2024-02-16T08:14:30;99683.94;;;6.29;100.00
43503;BME280;29098;48.184;16.298;2024-02-16T08:16:58;99701.63;;;6.73;100.00
43503;BME280;29098;48.184;16.298;2024-02-16T08:19:23;99713.56;;;6.85;100.00
43503;BME280;29098;48.184;16.298;2024-02-16T08:21:56;99729.59;;;6.82;100.00
43503;BME280;29098;48.184;16.298;2024-02-16T08:24:22;99675.78;;;6.60;100.00
43503;BME280;29098;48.184;16.298;2024-02-16T08:26:47;99724.50;;;6.99;100.00
43503;BME280;29098;48.184;16.298;2024-02-16T08:29:13;99742.84;;;6.99;100.00
43503;BME280;29098;48.184;16.298;2024-02-16T08:31:38;99677.09;;;6.74;100.00
43503;BME280;29098;48.184;16.298;2024-02-16T08:34:04;99695.69;;;7.17;100.00
43503;BME280;29098;48.184;16.298;2024-02-16T08:36:32;99725.91;;;7.48;100.00
43503;BME280;29098;48.184;16.298;2024-02-16T08:38:59;99707.88;;;7.26;100.00
43503;BME280;29098;48.184;16.298;2024-02-16T08:41:25;99679.34;;;7.05;100.00
43503;BME280;29098;48.184;16.298;2024-02-16T08:43:50;99683.81;;;7.13;100.00
43503;BME280;29098;48.184;16.298;2024-02-16T08:46:16;99700.41;;;7.58;100.00
43503;BME280;29098;48.184;16.298;2024-02-16T08:48:45;99713.38;;;7.60;100.00
43503;BME280;29098;48.184;16.298;2024-02-16T08:51:11;99728.41;;;7.76;100.00
43503;BME280;29098;48.184;16.298;2024-02-16T08:53:36;99730.88;;;7.77;100.00
43503;BME280;29098;48.184;16.298;2024-02-16T08:56:02;99694.25;;;7.67;100.00
43503;BME280;29098;48.184;16.298;2024-02-16T08:58:28;99689.66;;;7.96;100.00
43503;BME280;29098;48.184;16.298;2024-02-16T09:00:53;99709.38;;;8.08;100.00
43503;BME280;29098;48.184;16.298;2024-02-16T09:03:19;99704.97;;;8.44;100.00
43503;BME280;29098;48.184;16.298;2024-02-16T09:05:45;99688.53;;;8.42;100.00
43503;BME280;29098;48.184;16.298;2024-02-16T09:08:11;99691.31;;;8.40;100.00
43503;BME280;29098;48.184;16.298;2024-02-16T09:10:39;99718.41;;;8.75;100.00
43503;BME280;29098;48.184;16.298;2024-02-16T09:13:04;99693.06;;;8.66;100.00
43503;BME280;29098;48.184;16.298;2024-02-16T09:15:30;99668.75;;;8.72;100.00
43503;BME280;29098;48.184;16.298;2024-02-16T09:17:55;99679.16;;;8.99;100.00
43503;BME280;29098;48.184;16.298;2024-02-16T09:20:21;99677.38;;;9.16;100.00
43503;BME280;29098;48.184;16.298;2024-02-16T09:22:48;99735.72;;;9.36;100.00
43503;BME280;29098;48.184;16.298;2024-02-16T09:25:14;99692.97;;;9.59;100.00
43503;BME280;29098;48.184;16.298;2024-02-16T09:27:40;99700.34;;;9.64;100.00
43503;BME280;29098;48.184;16.298;2024-02-16T09:30:11;99699.31;;;9.81;100.00
43503;BME280;29098;48.184;16.298;2024-02-16T09:32:39;99704.91;;;9.95;100.00
43503;BME280;29098;48.184;16.298;2024-02-16T09:35:05;99730.56;;;10.09;100.00
43503;BME280;29098;48.184;16.298;2024-02-16T09:37:30;99711.34;;;10.40;100.00
43503;BME280;29098;48.184;16.298;2024-02-16T09:39:56;99709.41;;;10.26;100.00
43503;BME280;29098;48.184;16.298;2024-02-16T09:42:23;99723.16;;;10.61;100.00
43503;BME280;29098;48.184;16.298;2024-02-16T09:44:50;99738.88;;;10.78;100.00
43503;BME280;29098;48.184;16.298;2024-02-16T09:47:17;99712.44;;;10.54;100.00
43503;BME280;29098;48.184;16.298;2024-02-16T09:49:45;99699.06;;;10.64;100.00
43503;BME280;29098;48.184;16.298;2024-02-16T09:52:10;99692.78;;;10.65;100.00
43503;BME280;29098;48.184;16.298;2024-02-16T09:54:37;99664.97;;;10.63;100.00
43503;BME280;29098;48.184;16.298;2024-02-16T09:57:04;99690.50;;;10.94;100.00
43503;BME280;29098;48.184;16.298;2024-02-16T09:59:30;99733.63;;;11.24;100.00
43503;BME280;29098;48.184;16.298;2024-02-16T10:02:03;99696.31;;;11.28;100.00
43503;BME280;29098;48.184;16.298;2024-02-16T10:04:29;99713.16;;;11.65;100.00
43503;BME280;29098;48.184;16.298;2024-02-16T10:06:55;99691.47;;;11.55;100.00
43503;BME280;29098;48.184;16.298;2024-02-16T10:09:24;99667.44;;;11.49;100.00
43503;BME280;29098;48.184;16.298;2024-02-16T10:11:49;99717.66;;;11.79;100.00
43503;BME280;29098;48.184;16.298;2024-02-16T10:14:15;99703.47;;;11.96;100.00
43503;BME280;29098;48.184;16.298;2024-02-16T10:16:41;99742.78;;;12.14;100.00
43503;BME280;29098;48.184;16.298;2024-02-16T10:19:07;99691.25;;;11.95;100.00
43503;BME280;29098;48.184;16.298;2024-02-16T10:21:35;99703.19;;;12.36;100.00
43503;BME280;29098;48.184;16.298;2024-02-16T10:24:06;99683.41;;;12.31;98.99
43503;BME280;29098;48.184;16.298;2024-02-16T10:26:36;99682.91;;;12.21;98.95
43503;BME280;29098;48.184;16.298;2024-02-16T10:29:07;99714.50;;;12.29;98.59
43503;BME280;29098;48.184;16.298;2024-02-16T10:31:33;99721.06;;;12.33;90.22
43503;BME280;29098;48.184;16.298;2024-02-16T10:34:05;99698.16;;;12.41;85.31
43503;BME280;29098;48.184;16.298;2024-02-16T10:36:46;99699.34;;;12.53;81.14
43503;BME280;29098;48.184;16.298;2024-02-16T10:39:12;99730.47;;;12.73;79.03
43503;BME280;29098;48.184;16.298;2024-02-16T10:41:41;99684.38;;;12.60;77.97
43503;BME280;29098;48.184;16.298;2024-02-16T10:44:07;99692.06;;;12.77;77.66
43503;BME280;29098;48.184;16.298;2024-02-16T10:46:33;99697.38;;;12.77;77.89
43503;BME280;29098;48.184;16.298;2024-02-16T10:48:59;99713.00;;;13.15;76.63
43503;BME280;29098;48.184;16.298;2024-02-16T10:51:30;99705.72;;;13.24;76.78
43503;BME280;29098;48.184;16.298;2024-02-16T10:53:57;99681.13;;;13.02;75.13
43503;BME280;29098;48.184;16.298;2024-02-16T10:56:32;99675.06;;;13.30;73.68
43503;BME280;29098;48.184;16.298;2024-02-16T10:59:06;99686.13;;;13.40;72.75
43503;BME280;29098;48.184;16.298;2024-02-16T11:01:40;99700.13;;;13.56;73.46
43503;BME280;29098;48.184;16.298;2024-02-16T11:04:11;99678.25;;;13.47;72.24
43503;BME280;29098;48.184;16.298;2024-02-16T11:06:54;99653.63;;;13.47;72.50
43503;BME280;29098;48.184;16.298;2024-02-16T11:09:35;99666.16;;;14.02;70.81
43503;BME280;29098;48.184;16.298;2024-02-16T11:12:04;99684.81;;;14.22;70.96
43503;BME280;29098;48.184;16.298;2024-02-16T11:14:48;99682.59;;;14.32;69.31
43503;BME280;29098;48.184;16.298;2024-02-16T11:17:22;99652.22;;;14.35;68.83
43503;BME280;29098;48.184;16.298;2024-02-16T11:19:49;99684.34;;;14.60;69.16
43503;BME280;29098;48.184;16.298;2024-02-16T11:22:16;99661.09;;;14.69;66.93
43503;BME280;29098;48.184;16.298;2024-02-16T11:24:44;99697.72;;;14.94;66.77
43503;BME280;29098;48.184;16.298;2024-02-16T11:27:10;99640.69;;;14.63;66.66
43503;BME280;29098;48.184;16.298;2024-02-16T11:29:37;99686.31;;;15.14;65.91
43503;BME280;29098;48.184;16.298;2024-02-16T11:32:05;99659.34;;;15.30;63.82
43503;BME280;29098;48.184;16.298;2024-02-16T11:34:32;99675.69;;;15.41;64.91
43503;BME280;29098;48.184;16.298;2024-02-16T11:37:00;99689.56;;;15.70;64.06
43503;BME280;29098;48.184;16.298;2024-02-16T11:39:26;99652.78;;;15.53;62.06
43503;BME280;29098;48.184;16.298;2024-02-16T11:42:06;99658.91;;;15.47;62.27
43503;BME280;29098;48.184;16.298;2024-02-16T11:44:33;99694.69;;;15.58;62.50
43503;BME280;29098;48.184;16.298;2024-02-16T11:47:00;99668.69;;;15.73;61.33
43503;BME280;29098;48.184;16.298;2024-02-16T11:49:27;99687.81;;;16.16;60.74
43503;BME280;29098;48.184;16.298;2024-02-16T11:51:53;99655.06;;;16.22;59.52
43503;BME280;29098;48.184;16.298;2024-02-16T11:54:18;99695.13;;;16.34;59.28
43503;BME280;29098;48.184;16.298;2024-02-16T11:56:45;99647.47;;;16.26;59.50
43503;BME280;29098;48.184;16.298;2024-02-16T11:59:15;99684.78;;;16.58;58.78
43503;BME280;29098;48.184;16.298;2024-02-16T12:01:53;99673.19;;;16.39;58.82
43503;BME280;29098;48.184;16.298;2024-02-16T12:04:22;99676.25;;;16.42;59.04
43503;BME280;29098;48.184;16.298;2024-02-16T12:06:47;99693.72;;;16.70;57.97
43503;BME280;29098;48.184;16.298;2024-02-16T12:09:15;99636.78;;;16.39;58.04
43503;BME280;29098;48.184;16.298;2024-02-16T12:11:44;99625.94;;;16.34;57.93
43503;BME280;29098;48.184;16.298;2024-02-16T12:14:10;99681.59;;;16.75;57.89
43503;BME280;29098;48.184;16.298;2024-02-16T12:16:37;99647.94;;;16.55;57.49
43503;BME280;29098;48.184;16.298;2024-02-16T12:19:06;99641.34;;;16.64;57.54
43503;BME280;29098;48.184;16.298;2024-02-16T12:21:31;99624.84;;;16.81;56.99
43503;BME280;29098;48.184;16.298;2024-02-16T12:23:57;99646.41;;;17.05;56.30
43503;BME280;29098;48.184;16.298;2024-02-16T12:26:22;99648.72;;;16.94;56.17
43503;BME280;29098;48.184;16.298;2024-02-16T12:28:48;99632.91;;;17.00;55.98
43503;BME280;29098;48.184;16.298;2024-02-16T12:31:20;99628.47;;;16.87;56.51
43503;BME280;29098;48.184;16.298;2024-02-16T12:33:46;99607.56;;;16.90;56.46
43503;BME280;29098;48.184;16.298;2024-02-16T12:36:12;99653.59;;;17.04;57.06
43503;BME280;29098;48.184;16.298;2024-02-16T12:38:37;99659.44;;;16.88;55.63
43503;BME280;29098;48.184;16.298;2024-02-16T12:41:03;99634.03;;;16.85;56.97
43503;BME280;29098;48.184;16.298;2024-02-16T12:43:28;99622.88;;;17.02;56.62
43503;BME280;29098;48.184;16.298;2024-02-16T12:45:54;99607.06;;;16.75;56.58